createdAt,value
2018-05-26T00:01:41.541Z,87.20
2018-05-26T00:04:09.140Z,87.50
2018-05-26T00:06:37.495Z,87.00
2018-05-26T00:09:05.122Z,87.00
2018-05-26T00:11:32.751Z,87.30
2018-05-26T00:16:35.039Z,87.40
2018-05-26T00:19:02.681Z,87.30
2018-05-26T00:21:31.041Z,87.10
2018-05-26T00:23:58.661Z,87.00
2018-05-26T00:26:26.263Z,87.50
2018-05-26T00:28:53.906Z,87.00
2018-05-26T00:31:21.529Z,87.80
2018-05-26T00:33:49.145Z,87.90
2018-05-26T00:36:16.757Z,88.20
2018-05-26T00:38:44.386Z,88.40
2018-05-26T00:41:12.032Z,88.10
2018-05-26T00:43:40.429Z,87.00
2018-05-26T00:46:08.046Z,86.90
2018-05-26T00:48:35.662Z,87.10
2018-05-26T00:51:03.290Z,87.90
2018-05-26T00:53:31.702Z,88.50
2018-05-26T00:55:59.300Z,88.50
2018-05-26T00:58:26.920Z,88.00
2018-05-26T01:00:54.547Z,87.80
2018-05-26T01:03:22.909Z,87.60
2018-05-26T01:05:50.642Z,87.50
2018-05-26T01:08:18.255Z,87.50
2018-05-26T01:10:46.651Z,87.50
2018-05-26T01:13:14.249Z,87.50
2018-05-26T01:15:41.865Z,87.30
2018-05-26T01:18:09.510Z,87.30
2018-05-26T01:20:37.887Z,87.10
2018-05-26T01:23:06.287Z,87.00
2018-05-26T01:25:33.890Z,86.90
2018-05-26T01:28:01.499Z,87.10
2018-05-26T01:30:29.870Z,87.70
2018-05-26T01:32:58.241Z,88.00
2018-05-26T01:35:26.610Z,88.20
2018-05-26T01:37:54.243Z,88.20
2018-05-26T01:40:21.855Z,87.80
2018-05-26T01:42:49.485Z,88.20
2018-05-26T01:45:17.105Z,88.70
2018-05-26T01:47:44.739Z,88.20
2018-05-26T01:50:12.377Z,88.40
2018-05-26T01:52:40.920Z,87.70
2018-05-26T01:55:08.582Z,87.70
2018-05-26T01:57:36.316Z,87.60
2018-05-26T02:00:04.395Z,87.80
2018-05-26T02:02:32.002Z,87.90
2018-05-26T02:04:59.600Z,87.70
2018-05-26T02:07:27.249Z,87.90
2018-05-26T02:09:55.657Z,88.30
2018-05-26T02:12:23.251Z,87.80
2018-05-26T02:14:51.210Z,87.80
2018-05-26T02:17:18.808Z,88.10
2018-05-26T02:19:47.230Z,88.20
2018-05-26T02:22:14.821Z,88.80
2018-05-26T02:24:42.430Z,88.10
2018-05-26T02:27:10.070Z,89.00
2018-05-26T02:29:38.453Z,89.80
2018-05-26T02:32:06.869Z,89.70
2018-05-26T02:34:34.469Z,89.70
2018-05-26T02:37:02.094Z,90.00
2018-05-26T02:39:29.729Z,89.90
2018-05-26T02:41:57.318Z,89.80
2018-05-26T02:44:24.981Z,90.00
2018-05-26T02:46:52.601Z,89.60
2018-05-26T02:49:20.206Z,90.00
2018-05-26T02:51:47.832Z,89.90
2018-05-26T02:54:15.464Z,90.10
2018-05-26T02:56:43.834Z,90.20
2018-05-26T02:59:12.230Z,90.00
2018-05-26T03:01:39.873Z,90.00
2018-05-26T03:04:07.747Z,90.00
2018-05-26T03:06:41.761Z,90.20
2018-05-26T03:09:15.861Z,90.40
2018-05-26T03:11:49.991Z,90.10
2018-05-26T03:14:23.260Z,90.00
2018-05-26T03:16:54.610Z,90.20
2018-05-26T03:19:22.220Z,90.40
2018-05-26T03:21:49.821Z,90.30
2018-05-26T03:24:17.463Z,90.10
2018-05-26T03:26:45.058Z,89.60
2018-05-26T03:29:13.440Z,89.40
2018-05-26T03:31:41.829Z,90.00
2018-05-26T03:34:09.420Z,90.00
2018-05-26T03:36:37.042Z,89.90
2018-05-26T03:39:05.466Z,89.60
2018-05-26T03:41:33.129Z,89.60
2018-05-26T03:44:00.742Z,89.90
2018-05-26T03:46:29.109Z,89.50
2018-05-26T03:48:57.510Z,90.10
2018-05-26T03:51:25.198Z,90.10
2018-05-26T03:53:52.809Z,89.80
2018-05-26T03:56:33.218Z,89.20
2018-05-26T03:59:12.799Z,89.20
2018-05-26T04:01:40.374Z,88.90
2018-05-26T04:04:08.761Z,89.20
2018-05-26T04:06:36.361Z,89.20
2018-05-26T04:09:04.018Z,89.20
2018-05-26T04:11:31.641Z,90.00
2018-05-26T04:13:59.999Z,90.30
2018-05-26T04:16:27.649Z,90.30
2018-05-26T04:18:55.252Z,90.30
2018-05-26T04:21:22.865Z,90.30
2018-05-26T04:23:50.502Z,90.10
2018-05-26T04:26:18.128Z,89.50
2018-05-26T04:28:45.738Z,90.00
2018-05-26T04:31:13.368Z,89.70
2018-05-26T04:33:40.970Z,90.00
2018-05-26T04:36:08.556Z,89.70
2018-05-26T04:38:36.959Z,89.10
2018-05-26T04:41:04.591Z,89.10
2018-05-26T04:43:32.945Z,90.00
2018-05-26T04:46:00.588Z,90.00
2018-05-26T04:48:28.208Z,90.20
2018-05-26T04:50:55.808Z,90.10
2018-05-26T04:53:23.454Z,89.70
2018-05-26T04:55:51.069Z,89.70
2018-05-26T04:58:19.464Z,90.30
2018-05-26T05:00:47.084Z,90.30
2018-05-26T05:03:14.689Z,90.30
2018-05-26T05:05:42.362Z,90.30
2018-05-26T05:08:09.959Z,90.40
2018-05-26T05:10:37.561Z,90.50
2018-05-26T05:13:05.191Z,90.40
2018-05-26T05:15:33.025Z,90.30
2018-05-26T05:18:00.836Z,90.30
2018-05-26T05:20:29.283Z,90.70
2018-05-26T05:22:58.049Z,90.60
2018-05-26T05:25:26.003Z,90.40
2018-05-26T05:27:53.707Z,90.50
2018-05-26T05:30:21.351Z,90.50
2018-05-26T05:32:49.778Z,90.40
2018-05-26T05:35:18.319Z,90.30
2018-05-26T05:37:46.020Z,90.30
2018-05-26T05:40:14.421Z,90.50
2018-05-26T05:42:42.125Z,90.50
2018-05-26T05:45:13.408Z,90.60
2018-05-26T05:47:42.840Z,90.60
2018-05-26T05:50:12.251Z,90.50
2018-05-26T05:52:41.908Z,90.60
2018-05-26T05:55:14.999Z,90.70
2018-05-26T05:57:47.444Z,90.60
2018-05-26T06:00:16.499Z,90.60
2018-05-26T06:02:51.392Z,90.90
2018-05-26T06:05:22.172Z,91.50
2018-05-26T06:07:51.970Z,91.50
2018-05-26T06:10:22.474Z,91.30
2018-05-26T06:12:53.222Z,91.00
2018-05-26T06:15:21.932Z,91.10
2018-05-26T06:17:49.907Z,91.00
2018-05-26T06:20:17.648Z,91.10
2018-05-26T06:22:45.444Z,90.70
2018-05-26T06:25:13.121Z,91.00
2018-05-26T06:27:41.262Z,91.70
2018-05-26T06:30:09.080Z,92.10
2018-05-26T06:32:37.521Z,91.50
2018-05-26T06:35:06.132Z,91.40
2018-05-26T06:37:33.900Z,90.90
2018-05-26T06:40:01.572Z,90.30
2018-05-26T06:42:30.020Z,90.20
2018-05-26T06:44:58.109Z,90.20
2018-05-26T06:47:26.767Z,89.70
2018-05-26T06:49:54.500Z,89.70
2018-05-26T06:52:22.125Z,90.50
2018-05-26T06:54:50.591Z,91.10
2018-05-26T06:57:18.330Z,91.10
2018-05-26T06:59:45.950Z,91.10
2018-05-26T07:02:13.550Z,90.80
2018-05-26T07:04:41.145Z,90.00
2018-05-26T07:07:08.776Z,90.10
2018-05-26T07:09:36.472Z,89.50
2018-05-26T07:12:04.859Z,90.10
2018-05-26T07:14:33.315Z,89.90
2018-05-26T07:17:00.945Z,89.80
2018-05-26T07:19:28.637Z,89.20
2018-05-26T07:21:56.312Z,90.10
2018-05-26T07:24:24.999Z,88.30
2018-05-26T07:26:56.883Z,88.30
2018-05-26T07:29:26.238Z,87.60
2018-05-26T07:31:54.834Z,87.60
2018-05-26T07:34:23.693Z,88.20
2018-05-26T07:36:52.720Z,87.30
2018-05-26T07:39:21.097Z,87.10
2018-05-26T07:41:49.832Z,87.20
2018-05-26T07:44:17.927Z,87.20
2018-05-26T07:46:46.337Z,88.20
2018-05-26T07:49:15.585Z,86.70
2018-05-26T07:51:45.431Z,88.20
2018-05-26T07:54:14.098Z,87.30
2018-05-26T07:56:43.132Z,86.00
2018-05-26T07:59:11.824Z,83.90
2018-05-26T08:01:40.427Z,82.70
2018-05-26T08:04:09.135Z,82.20
2018-05-26T08:06:38.500Z,81.80
2018-05-26T08:09:07.256Z,81.80
2018-05-26T08:11:36.266Z,82.40
2018-05-26T08:14:07.345Z,81.80
2018-05-26T08:16:44.759Z,82.30
2018-05-26T08:19:19.306Z,82.30
2018-05-26T08:21:50.025Z,81.30
2018-05-26T08:24:21.202Z,81.30
2018-05-26T08:26:50.807Z,79.50
2018-05-26T08:29:18.630Z,79.40
2018-05-26T08:31:46.416Z,80.70
2018-05-26T08:34:14.100Z,77.10
2018-05-26T08:36:42.545Z,78.60
2018-05-26T08:39:10.203Z,78.60
2018-05-26T08:41:37.877Z,77.50
2018-05-26T08:44:05.506Z,77.40
2018-05-26T08:46:33.145Z,75.90
2018-05-26T08:49:01.610Z,75.20
2018-05-26T08:51:29.440Z,76.80
2018-05-26T08:53:58.586Z,77.90
2018-05-26T08:56:27.477Z,76.20
2018-05-26T08:58:57.075Z,74.80
2018-05-26T09:01:25.790Z,74.80
2018-05-26T09:03:54.110Z,76.50
2018-05-26T09:06:23.529Z,72.90
2018-05-26T09:08:51.582Z,72.90
2018-05-26T09:11:19.733Z,73.80
2018-05-26T09:13:48.338Z,74.20
2018-05-26T09:16:20.940Z,73.80
2018-05-26T09:18:50.214Z,72.60
2018-05-26T09:21:18.108Z,72.60
2018-05-26T09:23:46.431Z,73.60
2018-05-26T09:26:14.089Z,73.20
2018-05-26T09:28:41.739Z,74.10
2018-05-26T09:31:09.362Z,73.80
2018-05-26T09:33:37.781Z,72.20
2018-05-26T09:36:07.332Z,72.20
2018-05-26T09:38:36.256Z,72.30
2018-05-26T09:41:04.424Z,72.20
2018-05-26T09:43:33.423Z,71.50
2018-05-26T09:46:01.721Z,71.40
2018-05-26T09:48:29.471Z,70.10
2018-05-26T09:50:57.478Z,71.40
2018-05-26T09:53:25.161Z,70.80
2018-05-26T09:55:53.750Z,72.00
2018-05-26T09:58:22.120Z,70.00
2018-05-26T10:00:51.200Z,70.40
2018-05-26T10:03:18.805Z,71.00
2018-05-26T10:05:46.410Z,71.00
2018-05-26T10:08:14.042Z,70.20
2018-05-26T10:10:41.672Z,68.90
2018-05-26T10:13:09.275Z,69.90
2018-05-26T10:15:36.898Z,68.20
2018-05-26T10:18:04.511Z,69.20
2018-05-26T10:20:32.128Z,71.20
2018-05-26T10:22:59.857Z,68.90
2018-05-26T10:25:28.241Z,68.10
2018-05-26T10:27:56.607Z,67.90
2018-05-26T10:30:24.196Z,67.70
2018-05-26T10:32:51.793Z,67.60
2018-05-26T10:35:19.407Z,66.90
2018-05-26T10:37:47.790Z,66.10
2018-05-26T10:40:15.417Z,66.00
2018-05-26T10:42:44.048Z,66.40
2018-05-26T10:45:11.875Z,66.40
2018-05-26T10:47:40.222Z,66.50
2018-05-26T10:50:07.830Z,66.40
2018-05-26T10:52:36.283Z,66.40
2018-05-26T10:55:04.854Z,66.40
2018-05-26T10:57:34.701Z,66.70
2018-05-26T11:00:03.429Z,66.70
2018-05-26T11:02:32.688Z,66.30
2018-05-26T11:05:00.715Z,66.60
2018-05-26T11:07:29.960Z,65.30
2018-05-26T11:09:58.373Z,65.20
2018-05-26T11:12:26.562Z,65.30
2018-05-26T11:14:55.569Z,65.80
2018-05-26T11:17:23.682Z,63.30
2018-05-26T11:19:52.186Z,65.60
2018-05-26T11:22:21.498Z,65.40
2018-05-26T11:24:49.325Z,65.40
2018-05-26T11:27:18.231Z,63.30
2018-05-26T11:29:45.847Z,63.80
2018-05-26T11:32:14.322Z,63.90
2018-05-26T11:34:42.056Z,63.90
2018-05-26T11:37:09.729Z,61.00
2018-05-26T11:39:37.395Z,62.80
2018-05-26T11:42:05.113Z,61.20
2018-05-26T11:44:32.854Z,61.40
2018-05-26T11:47:00.487Z,61.70
2018-05-26T11:49:28.084Z,61.90
2018-05-26T11:51:55.703Z,61.10
2018-05-26T11:54:23.309Z,60.40
2018-05-26T11:56:50.973Z,60.40
2018-05-26T11:59:18.636Z,60.90
2018-05-26T12:01:46.367Z,60.40
2018-05-26T12:04:13.936Z,60.10
2018-05-26T12:06:42.773Z,61.40
2018-05-26T12:09:10.579Z,61.90
2018-05-26T12:11:38.998Z,61.20
2018-05-26T12:14:06.662Z,61.10
2018-05-26T12:16:34.291Z,60.50
2018-05-26T12:19:02.650Z,59.60
2018-05-26T12:21:30.236Z,59.60
2018-05-26T12:23:58.661Z,60.70
2018-05-26T12:26:26.294Z,60.60
2018-05-26T12:28:53.907Z,61.20
2018-05-26T12:31:21.495Z,58.90
2018-05-26T12:33:49.290Z,58.50
2018-05-26T12:36:16.910Z,60.60
2018-05-26T12:38:45.285Z,58.70
2018-05-26T12:41:13.700Z,58.70
2018-05-26T12:43:41.309Z,58.70
2018-05-26T12:46:10.067Z,58.20
2018-05-26T12:48:38.173Z,58.70
2018-05-26T12:51:06.781Z,58.60
2018-05-26T12:53:34.455Z,58.40
2018-05-26T12:56:02.200Z,58.00
2018-05-26T12:58:29.900Z,57.30
2018-05-26T13:00:58.950Z,57.00
2018-05-26T13:03:28.121Z,57.30
2018-05-26T13:06:03.677Z,57.80
2018-05-26T13:08:32.919Z,57.50
2018-05-26T13:11:02.692Z,56.80
2018-05-26T13:13:31.529Z,56.30
2018-05-26T13:16:01.540Z,56.40
2018-05-26T13:18:30.419Z,56.40
2018-05-26T13:20:59.580Z,56.70
2018-05-26T13:23:28.493Z,56.10
2018-05-26T13:25:59.395Z,56.10
2018-05-26T13:28:28.474Z,56.00
2018-05-26T13:30:56.190Z,56.80
2018-05-26T13:33:23.851Z,55.80
2018-05-26T13:35:51.471Z,54.90
2018-05-26T13:38:19.061Z,55.00
2018-05-26T13:40:47.621Z,54.70
2018-05-26T13:43:16.050Z,55.60
2018-05-26T13:45:44.820Z,54.30
2018-05-26T13:48:12.396Z,54.70
2018-05-26T13:50:40.063Z,54.50
2018-05-26T13:53:08.527Z,54.20
2018-05-26T13:55:36.916Z,52.40
2018-05-26T13:58:04.616Z,52.30
2018-05-26T14:00:32.279Z,52.40
2018-05-26T14:03:00.674Z,51.60
2018-05-26T14:05:29.070Z,51.20
2018-05-26T14:07:57.470Z,50.90
2018-05-26T14:10:25.136Z,50.90
2018-05-26T14:12:52.790Z,50.90
2018-05-26T14:15:20.389Z,50.50
2018-05-26T14:17:48.006Z,52.00
2018-05-26T14:20:15.599Z,51.20
2018-05-26T14:22:43.248Z,49.50
2018-05-26T14:25:10.885Z,50.10
2018-05-26T14:27:38.500Z,49.50
2018-05-26T14:30:06.117Z,49.40
2018-05-26T14:32:33.745Z,49.20
2018-05-26T14:35:02.141Z,49.50
2018-05-26T14:37:29.764Z,49.40
2018-05-26T14:39:57.379Z,50.00
2018-05-26T14:42:24.981Z,49.10
2018-05-26T14:44:52.590Z,49.60
2018-05-26T14:47:20.277Z,49.70
2018-05-26T14:49:47.945Z,49.40
2018-05-26T14:52:15.564Z,48.50
2018-05-26T14:54:43.182Z,48.80
2018-05-26T14:57:10.777Z,47.20
2018-05-26T14:59:38.410Z,47.20
2018-05-26T15:02:06.050Z,48.40
2018-05-26T15:04:33.678Z,47.90
2018-05-26T15:07:01.269Z,45.60
2018-05-26T15:09:28.888Z,45.70
2018-05-26T15:11:56.539Z,45.90
2018-05-26T15:14:24.140Z,44.60
2018-05-26T15:16:51.749Z,43.60
2018-05-26T15:19:20.140Z,44.00
2018-05-26T15:21:47.811Z,44.00
2018-05-26T15:24:15.456Z,44.50
2018-05-26T15:26:43.070Z,44.30
2018-05-26T15:29:10.691Z,44.40
2018-05-26T15:31:38.370Z,45.90
2018-05-26T15:34:06.019Z,45.20
2018-05-26T15:36:33.651Z,45.90
2018-05-26T15:39:02.022Z,44.60
2018-05-26T15:41:30.425Z,46.60
2018-05-26T15:43:58.051Z,46.60
2018-05-26T15:46:25.653Z,45.00
2018-05-26T15:48:53.290Z,46.90
2018-05-26T15:51:21.689Z,46.10
2018-05-26T15:53:49.702Z,46.10
2018-05-26T15:56:17.321Z,46.10
2018-05-26T15:58:45.045Z,45.60
2018-05-26T16:01:12.691Z,46.30
2018-05-26T16:03:40.370Z,46.10
2018-05-26T16:06:08.770Z,46.00
2018-05-26T16:08:36.403Z,46.00
2018-05-26T16:11:04.079Z,45.80
2018-05-26T16:13:31.727Z,47.40
2018-05-26T16:16:00.111Z,46.90
2018-05-26T16:18:28.510Z,46.80
2018-05-26T16:20:56.124Z,46.80
2018-05-26T16:23:23.746Z,47.60
2018-05-26T16:25:51.367Z,47.40
2018-05-26T16:28:19.731Z,47.60
2018-05-26T16:30:47.404Z,47.40
2018-05-26T16:33:15.020Z,47.50
2018-05-26T16:35:42.601Z,48.70
2018-05-26T16:38:10.197Z,48.30
2018-05-26T16:40:38.584Z,48.50
2018-05-26T16:43:06.224Z,48.50
2018-05-26T16:45:34.632Z,49.00
2018-05-26T16:48:02.240Z,49.00
2018-05-26T16:50:29.881Z,49.10
2018-05-26T16:52:57.473Z,49.40
2018-05-26T16:55:25.115Z,49.10
2018-05-26T16:57:52.744Z,48.40
2018-05-26T17:00:20.392Z,48.20
2018-05-26T17:02:48.012Z,48.20
2018-05-26T17:05:15.643Z,48.20
2018-05-26T17:07:43.277Z,48.50
2018-05-26T17:10:10.885Z,48.70
2018-05-26T17:12:38.497Z,49.50
2018-05-26T17:15:06.169Z,50.80
2018-05-26T17:17:33.784Z,52.20
2018-05-26T17:20:01.448Z,52.60
2018-05-26T17:22:29.833Z,52.90
2018-05-26T17:24:58.269Z,53.40
2018-05-26T17:27:25.879Z,53.30
2018-05-26T17:29:54.290Z,54.50
2018-05-26T17:32:21.927Z,54.50
2018-05-26T17:34:50.324Z,55.30
2018-05-26T17:37:17.940Z,55.20
2018-05-26T17:39:46.309Z,56.50
2018-05-26T17:42:13.937Z,56.10
2018-05-26T17:44:41.596Z,56.00
2018-05-26T17:47:09.193Z,56.40
2018-05-26T17:49:36.812Z,56.50
2018-05-26T17:52:04.450Z,56.50
2018-05-26T17:54:32.049Z,57.20
2018-05-26T17:56:59.678Z,57.70
2018-05-26T17:59:27.289Z,58.10
2018-05-26T18:01:54.935Z,58.20
2018-05-26T18:04:22.531Z,58.40
2018-05-26T18:06:50.930Z,58.80
2018-05-26T18:09:18.554Z,58.80
2018-05-26T18:11:46.164Z,59.40
2018-05-26T18:14:13.789Z,60.10
2018-05-26T18:16:42.180Z,60.40
2018-05-26T18:19:09.776Z,60.40
2018-05-26T18:21:37.388Z,61.50
2018-05-26T18:24:05.773Z,61.50
2018-05-26T18:26:34.169Z,61.20
2018-05-26T18:29:01.800Z,61.10
2018-05-26T18:31:31.109Z,62.30
2018-05-26T18:33:59.499Z,62.20
2018-05-26T18:36:27.108Z,62.20
2018-05-26T18:38:54.730Z,62.60
2018-05-26T18:41:22.361Z,62.60
2018-05-26T18:43:50.777Z,63.00
2018-05-26T18:46:18.414Z,63.00
2018-05-26T18:48:46.074Z,63.40
2018-05-26T18:51:13.712Z,64.00
2018-05-26T18:53:41.310Z,63.50
2018-05-26T18:56:08.909Z,63.60
2018-05-26T18:58:36.570Z,63.50
2018-05-26T19:01:04.198Z,64.10
2018-05-26T19:03:31.818Z,64.40
2018-05-26T19:06:00.198Z,64.70
2018-05-26T19:08:28.577Z,65.00
2018-05-26T19:10:57.337Z,65.30
2018-05-26T19:13:24.941Z,65.30
2018-05-26T19:15:52.569Z,65.70
2018-05-26T19:18:21.013Z,66.50
2018-05-26T19:20:48.617Z,66.40
2018-05-26T19:23:17.025Z,67.90
2018-05-26T19:25:44.661Z,67.10
2018-05-26T19:28:13.030Z,67.70
2018-05-26T19:30:40.669Z,67.60
2018-05-26T19:33:08.257Z,67.90
2018-05-26T19:35:36.675Z,68.60
2018-05-26T19:38:04.340Z,68.60
2018-05-26T19:40:31.997Z,68.60
2018-05-26T19:42:59.602Z,68.40
2018-05-26T19:45:27.252Z,68.30
2018-05-26T19:47:54.921Z,68.10
2018-05-26T19:50:22.579Z,67.80
2018-05-26T19:52:50.204Z,67.50
2018-05-26T19:55:17.911Z,67.20
2018-05-26T19:57:45.512Z,67.10
2018-05-26T20:00:13.171Z,66.70
2018-05-26T20:02:40.763Z,67.10
2018-05-26T20:05:08.381Z,67.00
2018-05-26T20:07:35.977Z,66.70
2018-05-26T20:10:03.648Z,66.90
2018-05-26T20:12:31.292Z,67.10
2018-05-26T20:14:58.925Z,67.30
2018-05-26T20:17:26.550Z,67.20
2018-05-26T20:19:54.170Z,67.20
2018-05-26T20:22:21.796Z,67.30
2018-05-26T20:24:50.194Z,67.80
2018-05-26T20:27:17.834Z,67.70
2018-05-26T20:29:46.230Z,67.60
2018-05-26T20:32:13.824Z,67.50
2018-05-26T20:34:41.422Z,67.70
2018-05-26T20:37:09.877Z,68.20
2018-05-26T20:39:37.475Z,68.10
2018-05-26T20:42:05.073Z,68.20
2018-05-26T20:44:32.700Z,68.50
2018-05-26T20:47:00.322Z,68.40
2018-05-26T20:49:27.969Z,68.20
2018-05-26T20:51:55.569Z,68.00
2018-05-26T20:54:23.930Z,68.10
2018-05-26T20:56:51.525Z,68.00
2018-05-26T20:59:19.136Z,67.70
2018-05-26T21:01:46.794Z,67.60
2018-05-26T21:04:14.432Z,67.90
2018-05-26T21:06:42.324Z,67.40
2018-05-26T21:09:09.929Z,67.50
2018-05-26T21:11:37.517Z,67.70
2018-05-26T21:14:05.204Z,67.60
2018-05-26T21:16:32.793Z,68.00
2018-05-26T21:19:01.185Z,68.00
2018-05-26T21:21:28.789Z,67.90
2018-05-26T21:23:57.207Z,68.20
2018-05-26T21:26:25.605Z,68.00
2018-05-26T21:28:53.276Z,68.00
2018-05-26T21:31:20.882Z,67.50
2018-05-26T21:33:48.489Z,67.00
2018-05-26T21:36:16.159Z,66.40
2018-05-26T21:38:43.818Z,66.90
2018-05-26T21:41:11.435Z,66.60
2018-05-26T21:43:39.053Z,66.60
2018-05-26T21:46:06.673Z,66.80
2018-05-26T21:48:35.071Z,66.70
2018-05-26T21:51:02.739Z,66.70
2018-05-26T21:53:30.933Z,66.90
2018-05-26T21:55:58.552Z,67.10
2018-05-26T21:58:26.191Z,67.70
2018-05-26T22:00:53.797Z,68.10
2018-05-26T22:03:21.489Z,67.60
2018-05-26T22:05:49.213Z,68.60
2018-05-26T22:08:17.670Z,72.90
2018-05-26T22:10:46.071Z,73.20
2018-05-26T22:13:13.707Z,73.10
2018-05-26T22:15:41.394Z,75.60
2018-05-26T22:18:09.019Z,75.20
2018-05-26T22:20:36.698Z,75.70
2018-05-26T22:23:04.374Z,77.50
2018-05-26T22:25:32.046Z,79.40
2018-05-26T22:27:59.697Z,81.00
2018-05-26T22:30:27.422Z,82.60
2018-05-26T22:32:55.042Z,83.60
2018-05-26T22:35:22.663Z,81.00
2018-05-26T22:37:51.020Z,79.50
2018-05-26T22:40:18.669Z,79.50
2018-05-26T22:42:46.340Z,79.40
2018-05-26T22:45:13.952Z,80.30
2018-05-26T22:47:41.572Z,79.80
2018-05-26T22:50:09.218Z,81.00
2018-05-26T22:52:36.867Z,81.50
2018-05-26T22:55:04.469Z,81.60
2018-05-26T22:57:32.086Z,82.20
2018-05-26T22:59:59.709Z,82.00
2018-05-26T23:02:27.298Z,82.20
2018-05-26T23:04:54.979Z,82.60
2018-05-26T23:07:22.697Z,82.10
2018-05-26T23:09:50.310Z,81.60
2018-05-26T23:12:17.933Z,81.90
2018-05-26T23:14:45.561Z,82.00
2018-05-26T23:17:13.256Z,81.90
2018-05-26T23:19:40.869Z,81.80
2018-05-26T23:22:09.253Z,83.80
2018-05-26T23:24:36.850Z,83.30
2018-05-26T23:27:04.584Z,84.10
2018-05-26T23:29:32.241Z,84.10
2018-05-26T23:31:59.861Z,85.00
2018-05-26T23:34:27.449Z,84.70
2018-05-26T23:36:55.853Z,85.40
2018-05-26T23:39:23.517Z,85.30
2018-05-26T23:41:51.174Z,85.30
2018-05-26T23:44:18.797Z,84.00
2018-05-26T23:46:46.460Z,85.00
2018-05-26T23:49:14.857Z,84.30
2018-05-26T23:51:42.528Z,84.20
2018-05-26T23:54:10.475Z,84.70
2018-05-26T23:56:38.866Z,84.30
2018-05-26T23:59:06.516Z,84.30
